EPPT weather

Piotrków Trybunalski-Bujny Airport
Piotrków Trybunalski, Lodz, Poland

Public forecast

Using degrees Celsius for public forecast. Weather courtesy of forecast.io.

Closest aviation weather report (METAR) to Piotrków Trybunalski-Bujny Airport

Closest report is Łódź Władysław Reymont Airport, 23.0 nm (42.7 km) NNW. Retrieved 2020/02/20 17:30 UTC (0 seconds ago):

EPLL 201730Z 14004KT 110V190 CAVOK 03/01 Q1020

Closest aviation forecast (TAF) to Piotrków Trybunalski-Bujny Airport

Closest forecast is Łódź Władysław Reymont Airport, 23.0 nm (42.7 km) NNW. Retrieved 2020/02/20 12:00 UTC (5 hours ago):

TAF EPLL 201130Z 2012/2112 27010KT 9999 BKN014 BKN020 BECMG 2016/2019 19005KT BECMG 2101/2104 BKN014 TEMPO 2105/2112 SHRA BKN008 BKN012CB PROB40 TEMPO 2108/2112 4500 SHRA BKN010CB